Time;durP1;ratioP1;P1;durP2;ratioP2;P2;SDS_P1;SDS_P2;PMS_P1;PMS_P2;Temp;Humidity;BMP_temperature;BMP_pressure;BME280_temperature;BME280_humidity;BME280_pressure;Samples;Min_cycle;Max_cycle;Signal;HPM_P1;HPM_P2
2022/03/06 00:02:20;;;;;;;;;62.67;51.00;;;;;;;;5089901;28;28342;-82
2022/03/06 00:04:45;;;;;;;;;65.00;53.00;;;;;;;;5089884;28;28408;-82
2022/03/06 00:07:10;;;;;;;;;68.50;52.75;;;;;;;;5089844;28;28577;-82
2022/03/06 00:09:36;;;;;;;;;63.25;52.00;;;;;;;;5089899;27;28357;-82
2022/03/06 00:12:01;;;;;;;;;62.25;51.00;;;;;;;;5089893;28;28320;-82
2022/03/06 00:14:26;;;;;;;;;65.33;52.33;;;;;;;;5090848;27;28408;-83
2022/03/06 00:16:52;;;;;;;;;65.25;52.25;;;;;;;;5089283;28;28371;-83
2022/03/06 00:19:17;;;;;;;;;61.00;49.25;;;;;;;;5089928;28;28421;-83
2022/03/06 00:21:43;;;;;;;;;65.50;51.25;;;;;;;;5090072;28;28297;-82
2022/03/06 00:24:08;;;;;;;;;65.00;50.00;;;;;;;;5090203;27;28314;-82
2022/03/06 00:26:33;;;;;;;;;65.67;52.00;;;;;;;;5089686;28;30174;-82
2022/03/06 00:28:59;;;;;;;;;57.00;47.67;;;;;;;;5090003;28;28333;-83
2022/03/06 00:31:24;;;;;;;;;66.00;53.00;;;;;;;;5089547;28;28670;-82
2022/03/06 00:33:50;;;;;;;;;59.67;49.00;;;;;;;;5090018;28;27829;-82
2022/03/06 00:36:15;;;;;;;;;60.00;50.00;;;;;;;;5089238;28;29494;-82
2022/03/06 00:38:41;;;;;;;;;62.33;49.33;;;;;;;;5096954;27;28672;-82
2022/03/06 00:41:06;;;;;;;;;64.00;51.00;;;;;;;;5110420;27;28444;-82
2022/03/06 00:43:31;;;;;;;;;64.00;51.00;;;;;;;;5110070;27;28275;-82
2022/03/06 00:45:57;;;;;;;;;60.50;49.75;;;;;;;;5109035;27;28628;-83
2022/03/06 00:48:22;;;;;;;;;65.00;49.50;;;;;;;;5089374;28;28302;-82
2022/03/06 00:50:47;;;;;;;;;64.67;52.33;;;;;;;;5089424;27;28384;-82
2022/03/06 00:53:12;;;;;;;;;66.00;53.00;;;;;;;;5089577;28;28840;-82
2022/03/06 00:55:38;;;;;;;;;60.00;47.00;;;;;;;;5089126;28;28646;-83
2022/03/06 00:58:06;;;;;;;;;64.00;51.67;;;;;;;;5089549;28;28456;-82
2022/03/06 01:00:35;;;;;;;;;60.00;49.00;;;;;;;;5090361;27;28462;-82
2022/03/06 01:03:02;;;;;;;;;63.00;50.40;;;;;;;;5089295;28;28487;-83
2022/03/06 01:05:27;;;;;;;;;59.00;46.50;;;;;;;;5089177;28;28348;-82
2022/03/06 01:07:52;;;;;;;;;56.67;47.00;;;;;;;;5089187;28;28326;-82
2022/03/06 01:10:17;;;;;;;;;60.00;48.75;;;;;;;;5089129;28;28321;-83
2022/03/06 01:12:43;;;;;;;;;59.00;48.00;;;;;;;;5089499;28;28325;-83
2022/03/06 01:15:08;;;;;;;;;58.00;49.00;;;;;;;;5100050;27;29410;-82
2022/03/06 01:17:33;;;;;;;;;62.00;50.75;;;;;;;;5109601;27;28314;-82
2022/03/06 01:19:58;;;;;;;;;57.00;47.33;;;;;;;;5109480;27;28287;-82
2022/03/06 01:22:24;;;;;;;;;59.50;48.50;;;;;;;;5109805;27;28330;-83
2022/03/06 01:24:49;;;;;;;;;64.75;50.00;;;;;;;;5109249;27;29245;-82
2022/03/06 01:27:14;;;;;;;;;59.33;50.33;;;;;;;;5109246;27;28377;-83
2022/03/06 01:29:39;;;;;;;;;60.00;47.33;;;;;;;;5099223;27;28285;-83
2022/03/06 01:32:05;;;;;;;;;62.00;49.00;;;;;;;;5089106;28;28300;-82
2022/03/06 01:34:30;;;;;;;;;63.50;47.75;;;;;;;;5087495;28;29302;-82
2022/03/06 01:36:55;;;;;;;;;67.25;50.00;;;;;;;;5095289;27;28396;-83
2022/03/06 01:39:20;;;;;;;;;61.00;49.00;;;;;;;;5109187;27;28330;-82
2022/03/06 01:41:46;;;;;;;;;58.25;46.75;;;;;;;;5101564;27;28028;-82
2022/03/06 01:44:12;;;;;;;;;60.50;46.50;;;;;;;;5088760;28;28413;-82
2022/03/06 01:46:37;;;;;;;;;59.60;48.20;;;;;;;;5088428;28;28472;-83
2022/03/06 01:49:02;;;;;;;;;61.50;49.00;;;;;;;;5088722;28;28357;-83
2022/03/06 01:51:27;;;;;;;;;57.25;48.50;;;;;;;;5088826;28;28346;-83
2022/03/06 01:53:53;;;;;;;;;56.50;45.50;;;;;;;;5088661;28;29475;-82
2022/03/06 01:56:18;;;;;;;;;58.00;46.33;;;;;;;;5093159;27;28470;-82
2022/03/06 01:58:44;;;;;;;;;59.50;49.50;;;;;;;;5111123;27;28377;-82
2022/03/06 02:01:09;;;;;;;;;59.75;50.25;;;;;;;;5095031;27;28496;-82
2022/03/06 02:03:35;;;;;;;;;56.67;45.67;;;;;;;;5092938;27;28593;-82
2022/03/06 02:06:00;;;;;;;;;58.50;47.00;;;;;;;;5091891;28;28553;-82
2022/03/06 02:08:26;;;;;;;;;60.00;51.00;;;;;;;;5091956;28;28503;-82
2022/03/06 02:10:53;;;;;;;;;60.00;46.00;;;;;;;;5092265;28;28305;-83
2022/03/06 02:13:18;;;;;;;;;57.75;46.25;;;;;;;;5091737;28;29133;-83
2022/03/06 02:15:44;;;;;;;;;57.75;47.00;;;;;;;;5091502;28;28326;-83
2022/03/06 02:18:09;;;;;;;;;61.75;48.50;;;;;;;;5105984;27;28335;-83
2022/03/06 02:20:36;;;;;;;;;59.00;48.25;;;;;;;;5112234;27;28404;-82
2022/03/06 02:23:01;;;;;;;;;57.00;45.25;;;;;;;;5110416;27;28445;-82
2022/03/06 02:25:27;;;;;;;;;58.50;47.00;;;;;;;;5112119;27;28410;-82
2022/03/06 02:27:54;;;;;;;;;54.75;46.00;;;;;;;;5111753;27;28471;-83
2022/03/06 02:30:20;;;;;;;;;53.75;45.00;;;;;;;;5112478;27;29360;-83
2022/03/06 02:32:46;;;;;;;;;59.80;48.40;;;;;;;;5111913;27;29897;-82
2022/03/06 02:35:12;;;;;;;;;58.00;47.33;;;;;;;;5111854;27;28497;-82
2022/03/06 02:37:37;;;;;;;;;57.25;45.25;;;;;;;;5111580;27;28774;-83
2022/03/06 02:40:04;;;;;;;;;53.67;44.00;;;;;;;;5112032;27;28968;-82
2022/03/06 02:42:31;;;;;;;;;57.25;46.75;;;;;;;;5111337;27;29360;-85
2022/03/06 02:44:58;;;;;;;;;63.00;52.50;;;;;;;;5111178;27;28471;-82
2022/03/06 02:47:23;;;;;;;;;58.20;49.40;;;;;;;;5111457;27;28562;-82
2022/03/06 02:49:49;;;;;;;;;60.00;50.00;;;;;;;;5110026;27;28575;-81
2022/03/06 02:52:14;;;;;;;;;52.75;45.00;;;;;;;;5111705;27;28582;-82
2022/03/06 02:54:39;;;;;;;;;58.00;45.00;;;;;;;;5111687;27;28428;-81
2022/03/06 02:57:05;;;;;;;;;58.33;45.67;;;;;;;;5110851;27;28451;-82
2022/03/06 02:59:30;;;;;;;;;56.40;45.20;;;;;;;;5111622;27;28452;-82
2022/03/06 03:01:56;;;;;;;;;55.33;46.33;;;;;;;;5110804;27;28433;-82
2022/03/06 03:04:21;;;;;;;;;58.75;49.50;;;;;;;;5111421;27;28383;-82
2022/03/06 03:06:50;;;;;;;;;61.25;49.00;;;;;;;;5109193;27;28346;-82
2022/03/06 03:09:17;;;;;;;;;58.00;46.00;;;;;;;;5111113;27;28515;-82
2022/03/06 03:11:42;;;;;;;;;55.80;45.00;;;;;;;;5111136;27;28603;-82
2022/03/06 03:14:07;;;;;;;;;62.33;49.33;;;;;;;;5111265;27;28318;-82
2022/03/06 03:16:32;;;;;;;;;58.00;46.50;;;;;;;;5110619;27;28530;-82
2022/03/06 03:18:58;;;;;;;;;56.33;47.00;;;;;;;;5111351;27;28440;-82
2022/03/06 03:21:23;;;;;;;;;58.50;48.75;;;;;;;;5111112;27;28334;-82
2022/03/06 03:23:48;;;;;;;;;57.67;49.00;;;;;;;;5111570;27;28443;-82
2022/03/06 03:26:13;;;;;;;;;55.25;44.00;;;;;;;;5111034;27;28523;-82
2022/03/06 03:28:39;;;;;;;;;55.50;45.50;;;;;;;;5111314;27;28875;-82
2022/03/06 03:31:04;;;;;;;;;55.33;46.67;;;;;;;;5124336;27;28383;-82
2022/03/06 03:33:29;;;;;;;;;58.00;48.50;;;;;;;;5131519;27;28488;-82
2022/03/06 03:35:54;;;;;;;;;55.25;44.50;;;;;;;;5131862;27;28707;-82
2022/03/06 03:38:19;;;;;;;;;55.00;44.00;;;;;;;;5131791;27;29123;-82
2022/03/06 03:40:45;;;;;;;;;55.25;44.25;;;;;;;;5131572;27;29815;-82
2022/03/06 03:43:10;;;;;;;;;57.25;47.00;;;;;;;;5131668;27;28346;-82
2022/03/06 03:45:36;;;;;;;;;62.67;50.33;;;;;;;;5131246;27;28356;-82
2022/03/06 03:48:01;;;;;;;;;57.75;47.00;;;;;;;;5131813;27;28426;-82
2022/03/06 03:50:27;;;;;;;;;56.75;48.25;;;;;;;;5131272;27;28719;-82
2022/03/06 03:52:52;;;;;;;;;56.33;45.33;;;;;;;;5131410;27;28320;-82
2022/03/06 03:55:18;;;;;;;;;52.67;45.33;;;;;;;;5131564;27;28779;-82
2022/03/06 03:57:44;;;;;;;;;57.50;48.00;;;;;;;;5127086;27;28340;-82
2022/03/06 04:00:09;;;;;;;;;59.75;49.00;;;;;;;;5110608;27;28492;-82
2022/03/06 04:02:34;;;;;;;;;57.00;48.25;;;;;;;;5110368;27;28293;-82
2022/03/06 04:05:00;;;;;;;;;55.00;47.67;;;;;;;;5118975;27;28405;-82
2022/03/06 04:07:25;;;;;;;;;56.50;44.50;;;;;;;;5131533;27;28410;-82
2022/03/06 04:09:51;;;;;;;;;58.33;49.67;;;;;;;;5131075;27;28464;-82
2022/03/06 04:12:16;;;;;;;;;56.00;45.00;;;;;;;;5131322;27;28640;-83
2022/03/06 04:14:41;;;;;;;;;60.25;46.50;;;;;;;;5130821;27;28428;-82
2022/03/06 04:17:06;;;;;;;;;55.33;47.33;;;;;;;;5131117;27;28336;-82
2022/03/06 04:19:32;;;;;;;;;55.00;45.33;;;;;;;;5124062;27;28479;-82
2022/03/06 04:21:57;;;;;;;;;59.33;48.33;;;;;;;;5109237;27;28473;-82
2022/03/06 04:24:22;;;;;;;;;61.50;49.50;;;;;;;;5112550;27;28372;-82
2022/03/06 04:26:47;;;;;;;;;58.75;49.00;;;;;;;;5130825;27;28484;-82
2022/03/06 04:29:12;;;;;;;;;58.67;47.67;;;;;;;;5130796;27;28503;-82
2022/03/06 04:31:38;;;;;;;;;58.00;47.00;;;;;;;;5130983;27;28310;-82
2022/03/06 04:34:03;;;;;;;;;58.33;49.00;;;;;;;;5130622;27;28743;-82
2022/03/06 04:36:28;;;;;;;;;58.50;47.75;;;;;;;;5112530;27;28600;-82
2022/03/06 04:38:54;;;;;;;;;58.67;48.00;;;;;;;;5109915;27;28512;-82
2022/03/06 04:41:19;;;;;;;;;59.00;46.75;;;;;;;;5110182;27;28833;-82
2022/03/06 04:43:44;;;;;;;;;53.25;43.75;;;;;;;;5110104;27;28387;-82
2022/03/06 04:46:10;;;;;;;;;58.00;48.00;;;;;;;;5109948;27;28355;-82
2022/03/06 04:48:36;;;;;;;;;55.00;44.50;;;;;;;;5108345;27;30713;-82
2022/03/06 04:51:01;;;;;;;;;54.25;46.00;;;;;;;;5125509;27;28451;-82
2022/03/06 04:53:26;;;;;;;;;51.00;42.50;;;;;;;;5130781;27;28247;-82
2022/03/06 04:55:51;;;;;;;;;57.00;45.00;;;;;;;;5113463;27;28254;-82
2022/03/06 04:58:17;;;;;;;;;47.75;41.75;;;;;;;;5109535;27;28566;-82
2022/03/06 05:00:42;;;;;;;;;56.00;46.00;;;;;;;;5109779;27;28270;-82
2022/03/06 05:03:07;;;;;;;;;59.33;46.33;;;;;;;;5109645;27;28256;-82
2022/03/06 05:05:32;;;;;;;;;57.75;48.00;;;;;;;;5109895;27;28304;-82
2022/03/06 05:07:58;;;;;;;;;61.00;46.00;;;;;;;;5109597;27;29416;-82
2022/03/06 05:10:24;;;;;;;;;58.00;47.50;;;;;;;;5109528;27;28344;-82
2022/03/06 05:12:49;;;;;;;;;54.00;45.00;;;;;;;;5109709;27;28289;-82
2022/03/06 05:15:14;;;;;;;;;54.00;46.00;;;;;;;;5109313;27;28302;-82
2022/03/06 05:17:40;;;;;;;;;58.75;47.00;;;;;;;;5121204;27;28417;-82
2022/03/06 05:20:06;;;;;;;;;56.25;46.00;;;;;;;;5130100;27;28318;-82
2022/03/06 05:22:31;;;;;;;;;53.00;44.60;;;;;;;;5130187;27;27912;-82
2022/03/06 05:24:58;;;;;;;;;53.33;44.00;;;;;;;;5130185;27;28346;-82
2022/03/06 05:27:23;;;;;;;;;54.75;44.00;;;;;;;;5119919;27;28460;-82
2022/03/06 05:29:49;;;;;;;;;56.75;44.25;;;;;;;;5109506;27;28362;-82
2022/03/06 05:32:14;;;;;;;;;59.00;47.00;;;;;;;;5110523;27;28317;-82
2022/03/06 05:34:39;;;;;;;;;54.00;44.50;;;;;;;;5112760;27;28779;-82
2022/03/06 05:37:04;;;;;;;;;53.00;46.00;;;;;;;;5112842;27;28492;-82
2022/03/06 05:39:29;;;;;;;;;54.50;45.50;;;;;;;;5112823;27;28802;-82
2022/03/06 05:41:55;;;;;;;;;54.33;45.00;;;;;;;;5113059;27;28368;-82
2022/03/06 05:44:21;;;;;;;;;54.00;43.67;;;;;;;;5111615;27;28541;-82
2022/03/06 05:46:46;;;;;;;;;55.25;45.75;;;;;;;;5112679;27;28721;-82
2022/03/06 05:49:15;;;;;;;;;58.00;45.00;;;;;;;;5112739;27;28324;-82
2022/03/06 05:51:40;;;;;;;;;55.20;45.00;;;;;;;;5112631;27;28291;-82
2022/03/06 05:54:07;;;;;;;;;52.50;44.75;;;;;;;;5112894;27;28685;-82
2022/03/06 05:56:32;;;;;;;;;54.50;44.00;;;;;;;;5112460;27;28719;-82
2022/03/06 05:58:57;;;;;;;;;56.00;45.00;;;;;;;;5119845;27;28434;-82
2022/03/06 06:01:23;;;;;;;;;58.25;47.50;;;;;;;;5131522;27;28339;-82
2022/03/06 06:03:49;;;;;;;;;53.00;44.50;;;;;;;;5132958;27;28648;-82
2022/03/06 06:06:14;;;;;;;;;52.40;43.60;;;;;;;;5124457;27;29076;-82
2022/03/06 06:08:39;;;;;;;;;55.00;45.50;;;;;;;;5110785;27;28384;-82
2022/03/06 06:11:05;;;;;;;;;58.50;47.75;;;;;;;;5112411;27;28532;-82
2022/03/06 06:13:30;;;;;;;;;55.25;46.50;;;;;;;;5112716;27;28392;-82
2022/03/06 06:15:55;;;;;;;;;53.00;45.67;;;;;;;;5111833;27;29624;-82
2022/03/06 06:18:21;;;;;;;;;51.00;43.00;;;;;;;;5111628;27;28480;-83
2022/03/06 06:20:46;;;;;;;;;56.25;47.75;;;;;;;;5110935;27;28249;-82
2022/03/06 06:23:11;;;;;;;;;54.00;43.33;;;;;;;;5112064;27;28421;-82
2022/03/06 06:25:36;;;;;;;;;53.33;43.00;;;;;;;;5111978;27;28536;-82
2022/03/06 06:28:02;;;;;;;;;59.50;48.25;;;;;;;;5112243;27;28396;-82
2022/03/06 06:30:27;;;;;;;;;53.50;45.00;;;;;;;;5122959;27;28461;-82
2022/03/06 06:32:52;;;;;;;;;53.00;45.67;;;;;;;;5132847;27;28315;-82
2022/03/06 06:35:17;;;;;;;;;53.33;45.67;;;;;;;;5131679;27;29757;-82
2022/03/06 06:37:43;;;;;;;;;56.00;45.00;;;;;;;;5132934;27;28443;-82
2022/03/06 06:40:08;;;;;;;;;56.67;46.00;;;;;;;;5131030;27;28299;-82
2022/03/06 06:42:33;;;;;;;;;56.50;45.00;;;;;;;;5132535;27;28408;-82
2022/03/06 06:44:58;;;;;;;;;56.00;43.00;;;;;;;;5131519;27;28450;-82
2022/03/06 06:47:24;;;;;;;;;60.67;48.67;;;;;;;;5132401;27;28329;-82
2022/03/06 06:49:49;;;;;;;;;55.33;45.67;;;;;;;;5131661;27;28317;-82
2022/03/06 06:52:14;;;;;;;;;48.33;42.00;;;;;;;;5112805;27;28586;-82
2022/03/06 06:54:39;;;;;;;;;58.33;46.67;;;;;;;;5111849;27;29305;-82
2022/03/06 06:57:05;;;;;;;;;55.75;45.00;;;;;;;;5111624;27;28300;-82
2022/03/06 06:59:30;;;;;;;;;53.67;43.33;;;;;;;;5111694;27;28427;-83
2022/03/06 07:01:55;;;;;;;;;55.25;45.00;;;;;;;;5110042;27;28492;-82
2022/03/06 07:04:20;;;;;;;;;53.00;43.33;;;;;;;;5111214;27;28501;-82
2022/03/06 07:06:45;;;;;;;;;51.00;43.25;;;;;;;;5111601;27;28281;-82
2022/03/06 07:09:11;;;;;;;;;52.75;42.50;;;;;;;;5111328;27;28472;-82
2022/03/06 07:11:36;;;;;;;;;54.75;44.75;;;;;;;;5110206;27;28744;-83
2022/03/06 07:14:01;;;;;;;;;52.67;43.67;;;;;;;;5111177;27;28498;-83
2022/03/06 07:16:26;;;;;;;;;52.67;41.67;;;;;;;;5119988;27;28305;-82
2022/03/06 07:18:53;;;;;;;;;51.33;43.67;;;;;;;;5131157;27;28324;-82
2022/03/06 07:21:19;;;;;;;;;51.00;41.25;;;;;;;;5132020;27;28518;-82
2022/03/06 07:23:44;;;;;;;;;50.33;41.67;;;;;;;;5129750;27;28444;-82
2022/03/06 07:26:09;;;;;;;;;50.75;40.50;;;;;;;;5131474;27;28535;-82
2022/03/06 07:28:34;;;;;;;;;54.50;43.75;;;;;;;;5123033;27;28513;-82
2022/03/06 07:31:00;;;;;;;;;50.67;39.00;;;;;;;;5110904;27;28350;-83
2022/03/06 07:33:25;;;;;;;;;52.00;43.00;;;;;;;;5117888;27;28375;-83
2022/03/06 07:35:50;;;;;;;;;47.25;41.25;;;;;;;;5124332;27;28472;-83
2022/03/06 07:38:15;;;;;;;;;55.67;45.67;;;;;;;;5110894;27;27762;-82
2022/03/06 07:40:41;;;;;;;;;52.67;42.33;;;;;;;;5111165;27;28436;-83
2022/03/06 07:43:06;;;;;;;;;49.33;42.33;;;;;;;;5110651;27;28500;-82
2022/03/06 07:45:31;;;;;;;;;49.00;42.00;;;;;;;;5114444;27;28411;-82
2022/03/06 07:47:56;;;;;;;;;54.25;46.00;;;;;;;;5131554;27;28278;-83
2022/03/06 07:50:22;;;;;;;;;47.75;39.75;;;;;;;;5131397;27;28459;-82
2022/03/06 07:52:47;;;;;;;;;51.67;41.00;;;;;;;;5130843;27;28711;-82
2022/03/06 07:55:13;;;;;;;;;51.00;42.00;;;;;;;;5114227;27;27880;-82
2022/03/06 07:57:38;;;;;;;;;45.00;40.00;;;;;;;;5110453;27;28354;-83
2022/03/06 08:00:04;;;;;;;;;46.00;40.50;;;;;;;;5110644;27;28726;-83
2022/03/06 08:02:30;;;;;;;;;47.50;41.00;;;;;;;;5110411;27;28413;-82
2022/03/06 08:04:55;;;;;;;;;50.50;41.75;;;;;;;;5114898;27;28392;-82
2022/03/06 08:07:20;;;;;;;;;51.75;41.50;;;;;;;;5131323;27;28235;-83
2022/03/06 08:09:45;;;;;;;;;52.25;42.00;;;;;;;;5130417;27;28420;-82
2022/03/06 08:12:11;;;;;;;;;52.25;41.75;;;;;;;;5130988;27;29207;-82
2022/03/06 08:14:36;;;;;;;;;54.67;42.67;;;;;;;;5122551;27;28168;-82
2022/03/06 08:17:01;;;;;;;;;49.00;40.50;;;;;;;;5128541;27;28715;-83
2022/03/06 08:19:26;;;;;;;;;42.67;38.00;;;;;;;;5118562;27;28615;-83
2022/03/06 08:21:52;;;;;;;;;53.67;40.00;;;;;;;;5089826;27;29056;-82
2022/03/06 08:24:17;;;;;;;;;44.67;38.00;;;;;;;;5098814;27;28328;-83
2022/03/06 08:26:43;;;;;;;;;47.50;40.50;;;;;;;;5108403;27;28391;-82
2022/03/06 08:29:08;;;;;;;;;50.25;42.00;;;;;;;;5110374;27;28405;-83
2022/03/06 08:31:34;;;;;;;;;51.25;41.75;;;;;;;;5110041;27;28397;-84
2022/03/06 08:33:59;;;;;;;;;42.00;38.00;;;;;;;;5110016;27;28527;-82
2022/03/06 08:36:24;;;;;;;;;51.00;40.33;;;;;;;;5112402;27;28491;-84
2022/03/06 08:38:49;;;;;;;;;48.00;39.25;;;;;;;;5130802;27;28442;-83
2022/03/06 08:41:15;;;;;;;;;47.25;42.00;;;;;;;;5130045;27;28383;-83
2022/03/06 08:43:40;;;;;;;;;49.50;40.50;;;;;;;;5130685;27;28502;-83
2022/03/06 08:46:05;;;;;;;;;45.00;38.25;;;;;;;;5130372;27;28404;-83
2022/03/06 08:48:30;;;;;;;;;47.00;39.33;;;;;;;;5110789;27;28424;-84
2022/03/06 08:50:56;;;;;;;;;45.67;38.00;;;;;;;;5109836;27;28599;-84
2022/03/06 08:53:21;;;;;;;;;47.80;39.20;;;;;;;;5109877;27;28309;-84
2022/03/06 08:55:47;;;;;;;;;40.50;37.25;;;;;;;;5123744;27;28377;-84
2022/03/06 08:58:12;;;;;;;;;50.75;42.50;;;;;;;;5100946;27;28449;-82
2022/03/06 09:00:37;;;;;;;;;46.50;39.00;;;;;;;;5100801;27;28589;-87
2022/03/06 09:03:03;;;;;;;;;45.25;38.50;;;;;;;;5108588;27;28404;-82
2022/03/06 09:05:28;;;;;;;;;42.00;37.00;;;;;;;;5120366;27;28397;-84
2022/03/06 09:07:53;;;;;;;;;43.75;37.25;;;;;;;;5106946;27;28425;-84
2022/03/06 09:10:19;;;;;;;;;50.00;42.33;;;;;;;;5108115;27;29647;-84
2022/03/06 09:12:44;;;;;;;;;44.75;40.25;;;;;;;;5108665;27;28441;-84
2022/03/06 09:15:10;;;;;;;;;45.00;39.00;;;;;;;;5107627;27;28395;-85
2022/03/06 09:17:37;;;;;;;;;46.00;39.20;;;;;;;;5126586;27;28674;-83
2022/03/06 09:20:03;;;;;;;;;43.00;35.25;;;;;;;;5111577;27;28521;-84
2022/03/06 09:22:28;;;;;;;;;39.25;35.75;;;;;;;;5107906;27;28475;-85
2022/03/06 09:24:54;;;;;;;;;47.67;39.00;;;;;;;;5109541;27;28456;-86
2022/03/06 09:27:19;;;;;;;;;47.50;39.00;;;;;;;;5107610;27;28388;-83
2022/03/06 09:29:44;;;;;;;;;43.50;37.25;;;;;;;;5107312;27;29165;-81
2022/03/06 09:32:09;;;;;;;;;46.25;37.50;;;;;;;;5110076;27;27860;-81
2022/03/06 09:34:35;;;;;;;;;48.75;39.00;;;;;;;;5116147;27;28456;-81
2022/03/06 09:37:00;;;;;;;;;45.33;35.67;;;;;;;;5108929;27;29930;-83
2022/03/06 09:39:25;;;;;;;;;50.00;40.25;;;;;;;;5108116;27;29721;-81
2022/03/06 09:41:53;;;;;;;;;42.33;36.67;;;;;;;;5108366;27;28872;-81
2022/03/06 09:44:19;;;;;;;;;39.00;34.50;;;;;;;;5116570;27;28461;-81
2022/03/06 09:46:44;;;;;;;;;46.25;36.75;;;;;;;;5115747;27;28456;-82
2022/03/06 09:49:10;;;;;;;;;42.25;38.25;;;;;;;;5127319;27;28576;-81
2022/03/06 09:51:40;;;;;;;;;46.75;37.75;;;;;;;;5107934;27;28383;-82
2022/03/06 09:54:06;;;;;;;;;43.60;35.80;;;;;;;;5108366;27;28444;-82
2022/03/06 09:56:32;;;;;;;;;45.00;39.00;;;;;;;;5108107;27;27886;-82
2022/03/06 09:58:57;;;;;;;;;44.67;37.67;;;;;;;;5107920;27;28527;-82
2022/03/06 10:01:22;;;;;;;;;42.50;35.25;;;;;;;;5107677;27;28503;-82
2022/03/06 10:03:47;;;;;;;;;43.67;38.00;;;;;;;;5122212;27;28490;-82
2022/03/06 10:06:13;;;;;;;;;44.00;36.00;;;;;;;;5107654;27;28390;-82
2022/03/06 10:08:38;;;;;;;;;41.25;36.00;;;;;;;;5107643;27;28448;-82
2022/03/06 10:11:08;;;;;;;;;46.00;38.67;;;;;;;;5107707;27;28385;-82
2022/03/06 10:13:33;;;;;;;;;39.75;36.00;;;;;;;;5107889;27;28535;-82
2022/03/06 10:16:04;;;;;;;;;34.00;33.25;;;;;;;;5111704;27;28421;-82
2022/03/06 10:18:30;;;;;;;;;38.20;33.40;;;;;;;;5112813;27;28494;-82
2022/03/06 10:21:08;;;;;;;;;42.25;36.50;;;;;;;;5123977;27;28480;-82
2022/03/06 10:23:33;;;;;;;;;34.00;29.00;;;;;;;;5108526;27;28550;-82
2022/03/06 10:25:59;;;;;;;;;36.67;33.67;;;;;;;;5111008;27;28490;-82
2022/03/06 10:28:24;;;;;;;;;44.40;37.00;;;;;;;;5110954;27;28377;-84
2022/03/06 10:30:50;;;;;;;;;35.25;33.75;;;;;;;;5110994;27;29330;-84
2022/03/06 10:33:18;;;;;;;;;37.00;34.00;;;;;;;;5111298;27;28464;-82
2022/03/06 10:35:45;;;;;;;;;33.00;33.00;;;;;;;;5110815;27;28961;-82
2022/03/06 10:38:20;;;;;;;;;43.25;35.75;;;;;;;;5110407;27;28457;-82
2022/03/06 10:40:45;;;;;;;;;40.75;36.75;;;;;;;;5111064;27;28469;-82
2022/03/06 10:43:21;;;;;;;;;36.75;33.00;;;;;;;;5110769;27;28358;-90
2022/03/06 10:45:47;;;;;;;;;39.50;36.00;;;;;;;;5117667;27;28573;-83
2022/03/06 10:48:12;;;;;;;;;45.00;37.00;;;;;;;;5104777;27;28690;-87
2022/03/06 10:50:38;;;;;;;;;42.75;36.25;;;;;;;;5110748;27;28467;-84
2022/03/06 10:53:18;;;;;;;;;45.75;39.75;;;;;;;;5110962;27;28554;-85
2022/03/06 10:55:43;;;;;;;;;42.25;37.75;;;;;;;;5109686;27;28506;-86
2022/03/06 10:58:09;;;;;;;;;40.00;35.25;;;;;;;;5110866;27;28458;-87
2022/03/06 11:00:35;;;;;;;;;36.00;34.00;;;;;;;;5110833;27;28470;-87
2022/03/06 11:03:04;;;;;;;;;45.75;37.50;;;;;;;;5111088;27;28450;-87
2022/03/06 11:05:30;;;;;;;;;40.20;36.00;;;;;;;;5121931;27;28653;-86
2022/03/06 11:07:55;;;;;;;;;40.75;35.25;;;;;;;;5109370;27;28738;-85
2022/03/06 11:10:21;;;;;;;;;47.67;39.00;;;;;;;;5110263;27;28649;-87
2022/03/06 11:12:47;;;;;;;;;45.20;37.60;;;;;;;;5110039;27;28423;-89
2022/03/06 11:15:12;;;;;;;;;41.50;32.50;;;;;;;;5110086;27;28491;-85
2022/03/06 11:17:38;;;;;;;;;39.50;34.50;;;;;;;;5109939;27;28287;-86
2022/03/06 11:20:03;;;;;;;;;41.75;36.75;;;;;;;;5110130;27;28485;-86
2022/03/06 11:22:50;;;;;;;;;44.50;36.25;;;;;;;;5108651;27;28854;-84
2022/03/06 11:25:20;;;;;;;;;39.00;35.00;;;;;;;;5110399;27;28404;-86
2022/03/06 11:27:59;;;;;;;;;42.20;35.60;;;;;;;;5122636;27;28579;-83
2022/03/06 11:30:24;;;;;;;;;42.25;35.25;;;;;;;;5115658;27;28846;-83
2022/03/06 11:33:06;;;;;;;;;41.25;37.00;;;;;;;;5109916;27;28251;-83
2022/03/06 11:35:41;;;;;;;;;47.00;39.60;;;;;;;;5123011;27;28544;-81
2022/03/06 11:38:08;;;;;;;;;42.25;35.25;;;;;;;;5109601;27;28539;-83
2022/03/06 11:40:38;;;;;;;;;42.00;36.00;;;;;;;;5108439;27;28543;-82
2022/03/06 11:43:04;;;;;;;;;37.50;34.75;;;;;;;;5109991;27;28645;-82
2022/03/06 11:45:42;;;;;;;;;43.50;37.00;;;;;;;;5121631;27;28561;-82
2022/03/06 11:48:07;;;;;;;;;45.60;37.60;;;;;;;;5109572;27;29366;-81
2022/03/06 11:50:33;;;;;;;;;36.33;34.33;;;;;;;;5109553;27;28429;-83
2022/03/06 11:52:58;;;;;;;;;44.25;35.50;;;;;;;;5109576;27;28449;-82
2022/03/06 11:55:31;;;;;;;;;40.25;35.00;;;;;;;;5110080;27;28461;-83
2022/03/06 11:57:56;;;;;;;;;42.50;37.75;;;;;;;;5109922;27;28553;-84
2022/03/06 12:00:24;;;;;;;;;40.33;36.00;;;;;;;;5109002;27;28889;-83
2022/03/06 12:03:00;;;;;;;;;39.50;33.75;;;;;;;;5114129;27;28484;-81
2022/03/06 12:05:44;;;;;;;;;44.25;37.00;;;;;;;;5113064;27;28474;-84
2022/03/06 12:08:10;;;;;;;;;39.25;35.75;;;;;;;;5121356;27;28770;-84
2022/03/06 12:10:35;;;;;;;;;47.80;39.60;;;;;;;;5109148;27;28264;-82
2022/03/06 12:13:00;;;;;;;;;43.67;37.00;;;;;;;;5109655;27;28730;-83
2022/03/06 12:15:27;;;;;;;;;36.00;31.00;;;;;;;;5108828;27;28476;-88
2022/03/06 12:17:53;;;;;;;;;38.25;35.50;;;;;;;;5109178;27;29997;-93
2022/03/06 12:20:23;;;;;;;;;43.25;38.00;;;;;;;;5108742;27;28410;-83
2022/03/06 12:22:50;;;;;;;;;45.75;39.25;;;;;;;;5109274;27;28856;-81
2022/03/06 12:25:19;;;;;;;;;37.20;33.80;;;;;;;;5109342;27;28553;-81
2022/03/06 12:28:00;;;;;;;;;40.00;36.50;;;;;;;;5107194;27;29202;-82
2022/03/06 12:30:25;;;;;;;;;41.20;35.40;;;;;;;;5100460;27;28504;-85
2022/03/06 12:32:50;;;;;;;;;42.25;35.25;;;;;;;;5108734;27;28456;-84
2022/03/06 12:35:17;;;;;;;;;41.00;34.67;;;;;;;;5108851;27;28598;-84
2022/03/06 12:37:52;;;;;;;;;44.75;36.00;;;;;;;;5108664;27;28527;-83
2022/03/06 12:40:19;;;;;;;;;46.33;38.00;;;;;;;;5114287;27;28506;-84
2022/03/06 12:42:46;;;;;;;;;44.75;36.75;;;;;;;;5108139;27;28505;-84
2022/03/06 12:45:16;;;;;;;;;43.75;37.50;;;;;;;;5108790;27;28513;-83
2022/03/06 12:47:42;;;;;;;;;45.80;38.20;;;;;;;;5107507;27;28452;-83
2022/03/06 12:50:09;;;;;;;;;45.75;39.75;;;;;;;;5099390;27;28469;-83
2022/03/06 12:52:35;;;;;;;;;40.75;34.75;;;;;;;;5108542;27;28653;-84
2022/03/06 12:55:03;;;;;;;;;45.00;37.50;;;;;;;;5109008;27;28433;-83
2022/03/06 12:57:38;;;;;;;;;42.00;36.00;;;;;;;;5108246;27;28452;-83
2022/03/06 13:00:06;;;;;;;;;45.00;38.20;;;;;;;;5108470;27;28275;-85
2022/03/06 13:02:31;;;;;;;;;40.75;35.75;;;;;;;;5108818;27;28393;-86
2022/03/06 13:04:56;;;;;;;;;45.50;37.00;;;;;;;;5108641;27;28513;-85
2022/03/06 13:07:25;;;;;;;;;39.33;35.33;;;;;;;;5107916;27;28409;-85
2022/03/06 13:09:56;;;;;;;;;46.00;39.00;;;;;;;;5108430;27;28526;-86
2022/03/06 13:12:22;;;;;;;;;46.00;37.00;;;;;;;;5108314;27;28594;-86
2022/03/06 13:14:47;;;;;;;;;42.25;35.25;;;;;;;;5108374;27;28511;-87
2022/03/06 13:17:12;;;;;;;;;41.75;37.00;;;;;;;;5108291;27;28532;-85
2022/03/06 13:19:39;;;;;;;;;38.33;35.00;;;;;;;;5107850;27;28451;-86
2022/03/06 13:22:06;;;;;;;;;40.20;35.60;;;;;;;;5115827;27;28444;-84
2022/03/06 13:24:37;;;;;;;;;48.40;39.60;;;;;;;;5116997;27;28451;-85
2022/03/06 13:27:02;;;;;;;;;44.60;38.00;;;;;;;;5108382;27;28649;-85
2022/03/06 13:29:27;;;;;;;;;38.33;35.00;;;;;;;;5116715;27;28473;-85
2022/03/06 13:31:53;;;;;;;;;40.33;35.00;;;;;;;;5128778;27;28862;-85
2022/03/06 13:34:18;;;;;;;;;44.00;37.75;;;;;;;;5129124;27;28468;-85
2022/03/06 13:36:44;;;;;;;;;46.33;36.00;;;;;;;;5128797;27;28535;-84
2022/03/06 13:39:12;;;;;;;;;46.50;39.00;;;;;;;;5117500;27;28508;-85
2022/03/06 13:41:48;;;;;;;;;37.80;34.80;;;;;;;;5113482;27;28515;-84
2022/03/06 13:44:13;;;;;;;;;39.60;36.00;;;;;;;;5108007;27;28406;-85
2022/03/06 13:46:39;;;;;;;;;40.67;34.67;;;;;;;;5108071;27;29307;-85
2022/03/06 13:49:11;;;;;;;;;43.75;37.00;;;;;;;;5107678;27;28851;-84
2022/03/06 13:51:37;;;;;;;;;41.40;35.80;;;;;;;;5108114;27;28975;-84
2022/03/06 13:54:03;;;;;;;;;41.25;37.00;;;;;;;;5110532;27;28460;-83
2022/03/06 13:56:28;;;;;;;;;47.00;36.60;;;;;;;;5111536;27;28591;-83
2022/03/06 13:58:53;;;;;;;;;41.33;35.67;;;;;;;;5110757;27;28390;-83
2022/03/06 14:01:19;;;;;;;;;43.50;36.75;;;;;;;;5111399;27;28456;-85
2022/03/06 14:03:46;;;;;;;;;43.67;35.33;;;;;;;;5111538;27;28327;-84
2022/03/06 14:06:12;;;;;;;;;34.00;32.80;;;;;;;;5111204;27;28500;-84
2022/03/06 14:08:38;;;;;;;;;43.25;34.00;;;;;;;;5111164;27;28661;-84
2022/03/06 14:11:03;;;;;;;;;44.00;36.75;;;;;;;;5110984;27;28521;-83